createdAt,value
2022-08-21T00:01:48.003Z,99793.06
2022-08-21T00:04:20.847Z,99790.28
2022-08-21T00:06:51.598Z,99782.94
2022-08-21T00:09:22.010Z,99789.22
2022-08-21T00:11:50.561Z,99792.75
2022-08-21T00:14:18.877Z,99791.53
2022-08-21T00:16:47.354Z,99785.59
2022-08-21T00:19:15.519Z,99779.69
2022-08-21T00:21:44.917Z,99780.84
2022-08-21T00:24:13.419Z,99774.97
2022-08-21T00:26:44.556Z,99776.56
2022-08-21T00:29:12.884Z,99771.13
2022-08-21T00:31:41.237Z,99772.31
2022-08-21T00:34:10.201Z,99775.09
2022-08-21T00:36:38.916Z,99762.59
2022-08-21T00:39:09.162Z,99763.81
2022-08-21T00:41:40.088Z,99771.31
2022-08-21T00:44:12.217Z,99765.13
2022-08-21T00:46:41.362Z,99771.38
2022-08-21T00:49:12.297Z,99766.66
2022-08-21T00:51:44.551Z,99765.13
2022-08-21T00:54:18.604Z,99768.28
2022-08-21T00:56:50.988Z,99769.03
2022-08-21T00:59:22.808Z,99771.03
2022-08-21T01:01:53.375Z,99763.28
2022-08-21T01:04:22.446Z,99764.09
2022-08-21T01:06:50.688Z,99760.59
2022-08-21T01:09:20.058Z,99766.41
2022-08-21T01:11:49.078Z,99763.28
2022-08-21T01:14:19.484Z,99769.16
2022-08-21T01:16:52.170Z,99760.94
2022-08-21T01:19:23.104Z,99757.41
2022-08-21T01:21:53.238Z,99756.25
2022-08-21T01:24:21.437Z,99757.41
2022-08-21T01:26:51.481Z,99764.09
2022-08-21T01:29:32.672Z,99758.25
2022-08-21T01:32:06.562Z,99761.34
2022-08-21T01:34:36.442Z,99757.47
2022-08-21T01:37:06.861Z,99761.34
2022-08-21T01:39:36.337Z,99760.56
2022-08-21T01:42:05.286Z,99756.28
2022-08-21T01:44:33.888Z,99756.66
2022-08-21T01:47:05.094Z,99749.69
2022-08-21T01:49:33.230Z,99740.34
2022-08-21T01:52:01.585Z,99746.59
2022-08-21T01:54:31.477Z,99748.94
2022-08-21T01:57:00.843Z,99741.13
2022-08-21T01:59:29.794Z,99738.41
2022-08-21T02:01:58.495Z,99739.97
2022-08-21T02:04:26.831Z,99738.00
2022-08-21T02:06:55.040Z,99736.78
2022-08-21T02:09:24.381Z,99734.16
2022-08-21T02:11:54.830Z,99741.94
2022-08-21T02:14:32.244Z,99739.59
2022-08-21T02:17:05.415Z,99737.31
2022-08-21T02:19:39.440Z,99734.59
2022-08-21T02:22:09.933Z,99728.38
2022-08-21T02:24:55.163Z,99746.28
2022-08-21T02:27:26.256Z,99748.25
2022-08-21T02:29:55.428Z,99755.28
2022-08-21T02:32:23.663Z,99749.00
2022-08-21T02:34:51.801Z,99749.00
2022-08-21T02:37:20.042Z,99758.31
2022-08-21T02:39:48.276Z,99755.16
2022-08-21T02:42:16.636Z,99752.00
2022-08-21T02:44:46.172Z,99757.88
2022-08-21T02:47:14.402Z,99763.03
2022-08-21T02:49:42.716Z,99761.91
2022-08-21T02:52:11.358Z,99764.63
2022-08-21T02:54:40.772Z,99758.38
2022-08-21T02:57:09.308Z,99766.16
2022-08-21T02:59:37.638Z,99756.13
2022-08-21T03:02:07.343Z,99753.38
2022-08-21T03:04:35.853Z,99761.56
2022-08-21T03:07:03.976Z,99755.81
2022-08-21T03:09:34.980Z,99753.03
2022-08-21T03:12:03.358Z,99762.75
2022-08-21T03:14:31.479Z,99762.38
2022-08-21T03:16:59.604Z,99763.19
2022-08-21T03:19:29.269Z,99758.88
2022-08-21T03:21:57.481Z,99758.53
2022-08-21T03:24:25.605Z,99755.00
2022-08-21T03:26:53.782Z,99764.78
2022-08-21T03:29:21.953Z,99765.50
2022-08-21T03:31:50.135Z,99758.53
2022-08-21T03:34:18.330Z,99758.53
2022-08-21T03:36:47.924Z,99755.47
2022-08-21T03:39:16.242Z,99762.19
2022-08-21T03:41:44.398Z,99766.47
2022-08-21T03:44:13.981Z,99771.13
2022-08-21T03:46:42.446Z,99777.72
2022-08-21T03:49:10.549Z,99775.81
2022-08-21T03:51:38.705Z,99774.59
2022-08-21T03:54:08.353Z,99778.94
2022-08-21T03:56:37.546Z,99780.81
2022-08-21T03:59:05.975Z,99775.72
2022-08-21T04:01:34.585Z,99780.44
2022-08-21T04:04:02.933Z,99781.09
2022-08-21T04:06:35.775Z,99775.63
2022-08-21T04:09:07.522Z,99784.22
2022-08-21T04:11:35.720Z,99787.84
2022-08-21T04:14:03.883Z,99797.81
2022-08-21T04:16:32.162Z,99801.56
2022-08-21T04:19:00.311Z,99789.88
2022-08-21T04:21:28.656Z,99783.06
2022-08-21T04:23:57.324Z,99781.44
2022-08-21T04:26:26.917Z,99787.19
2022-08-21T04:28:56.743Z,99781.53
2022-08-21T04:31:24.984Z,99780.59
2022-08-21T04:33:53.524Z,99782.59
2022-08-21T04:36:24.414Z,99786.03
2022-08-21T04:38:52.866Z,99781.38
2022-08-21T04:41:27.908Z,99791.88
2022-08-21T04:43:58.146Z,99781.75
2022-08-21T04:46:26.292Z,99785.63
2022-08-21T04:48:54.485Z,99783.84
2022-08-21T04:51:27.499Z,99781.84
2022-08-21T04:54:02.887Z,99780.09
2022-08-21T04:56:36.330Z,99779.59
2022-08-21T04:59:13.971Z,99768.97
2022-08-21T05:01:43.095Z,99766.88
2022-08-21T05:04:14.471Z,99760.31
2022-08-21T05:06:46.085Z,99757.91
2022-08-21T05:09:16.831Z,99750.75
2022-08-21T05:11:45.764Z,99754.38
2022-08-21T05:14:15.755Z,99756.41
2022-08-21T05:16:45.001Z,99746.69
2022-08-21T05:19:13.627Z,99747.78
2022-08-21T05:21:44.722Z,99742.41
2022-08-21T05:24:13.595Z,99745.84
2022-08-21T05:26:45.955Z,99751.78
2022-08-21T05:29:18.321Z,99755.78
2022-08-21T05:31:47.974Z,99751.09
2022-08-21T05:34:17.282Z,99750.16
2022-08-21T05:36:45.545Z,99746.16
2022-08-21T05:39:13.915Z,99745.03
2022-08-21T05:41:42.360Z,99747.72
2022-08-21T05:44:11.239Z,99741.22
2022-08-21T05:46:41.208Z,99745.94
2022-08-21T05:49:09.974Z,99748.22
2022-08-21T05:51:38.732Z,99743.09
2022-08-21T05:54:07.086Z,99745.16
2022-08-21T05:56:35.983Z,99741.09
2022-08-21T05:59:04.687Z,99746.81
2022-08-21T06:01:37.195Z,99741.06
2022-08-21T06:04:08.209Z,99744.16
2022-08-21T06:06:36.792Z,99735.47
2022-08-21T06:09:05.218Z,99746.19
2022-08-21T06:11:34.949Z,99743.81
2022-08-21T06:14:03.185Z,99744.66
2022-08-21T06:16:31.540Z,99747.38
2022-08-21T06:19:02.913Z,99744.09
2022-08-21T06:21:32.813Z,99741.81
2022-08-21T06:24:01.009Z,99750.09
2022-08-21T06:26:29.245Z,99741.63
2022-08-21T06:28:57.457Z,99741.91
2022-08-21T06:31:28.421Z,99735.81
2022-08-21T06:33:56.819Z,99738.41
2022-08-21T06:36:25.455Z,99746.69
2022-08-21T06:38:54.974Z,99736.81
2022-08-21T06:41:27.026Z,99745.59
2022-08-21T06:43:56.462Z,99747.13
2022-08-21T06:46:25.049Z,99753.25
2022-08-21T06:48:53.377Z,99742.72
2022-08-21T06:51:21.620Z,99736.59
2022-08-21T06:53:49.751Z,99745.00
2022-08-21T06:56:19.917Z,99748.34
2022-08-21T06:58:48.322Z,99756.31
2022-08-21T07:01:16.563Z,99743.69
2022-08-21T07:03:45.762Z,99749.81
2022-08-21T07:06:14.179Z,99753.34
2022-08-21T07:08:42.520Z,99745.16
2022-08-21T07:11:14.956Z,99740.53
2022-08-21T07:13:44.554Z,99733.94
2022-08-21T07:16:12.829Z,99742.16
2022-08-21T07:18:40.998Z,99737.16
2022-08-21T07:21:09.985Z,99738.09
2022-08-21T07:23:40.661Z,99743.19
2022-08-21T07:26:12.770Z,99737.56
2022-08-21T07:28:41.267Z,99738.31
2022-08-21T07:31:14.657Z,99737.25
2022-08-21T07:33:43.222Z,99747.44
2022-08-21T07:36:12.005Z,99739.16
2022-08-21T07:38:40.312Z,99744.16
2022-08-21T07:41:18.244Z,99740.63
2022-08-21T07:43:46.757Z,99742.78
2022-08-21T07:46:16.962Z,99733.53
2022-08-21T07:48:45.614Z,99732.38
2022-08-21T07:51:16.103Z,99735.16
2022-08-21T07:53:45.350Z,99743.44
2022-08-21T07:56:13.579Z,99740.38
2022-08-21T07:58:41.787Z,99732.94
2022-08-21T08:01:10.047Z,99744.22
2022-08-21T08:03:40.170Z,99732.53
2022-08-21T08:06:13.148Z,99745.66
2022-08-21T08:08:41.865Z,99730.09
2022-08-21T08:11:11.936Z,99742.53
2022-08-21T08:13:45.737Z,99735.88
2022-08-21T08:16:14.616Z,99733.09
2022-08-21T08:18:45.456Z,99730.97
2022-08-21T08:21:14.881Z,99733.63
2022-08-21T08:23:45.279Z,99735.06
2022-08-21T08:26:13.879Z,99729.56
2022-08-21T08:28:42.185Z,99731.44
2022-08-21T08:31:10.478Z,99726.53
2022-08-21T08:33:38.625Z,99720.50
2022-08-21T08:36:15.894Z,99724.28
2022-08-21T08:38:44.406Z,99712.13
2022-08-21T08:41:16.733Z,99717.13
2022-08-21T08:43:51.598Z,99721.72
2022-08-21T08:46:25.412Z,99714.25
2022-08-21T08:48:56.248Z,99711.06
2022-08-21T08:51:32.482Z,99718.53
2022-08-21T08:54:04.889Z,99718.16
2022-08-21T08:56:35.401Z,99720.50
2022-08-21T08:59:12.437Z,99723.31
2022-08-21T09:01:40.729Z,99714.50
2022-08-21T09:04:09.647Z,99703.94
2022-08-21T09:06:53.455Z,99713.34
2022-08-21T09:09:32.510Z,99708.56
2022-08-21T09:12:07.298Z,99704.28
2022-08-21T09:14:49.485Z,99694.47
2022-08-21T09:17:36.605Z,99704.72
2022-08-21T09:20:17.907Z,99694.53
2022-08-21T09:23:11.009Z,99688.59
2022-08-21T09:25:48.081Z,99687.56
2022-08-21T09:28:16.226Z,99693.88
2022-08-21T09:30:44.412Z,99693.47
2022-08-21T09:33:17.072Z,99693.69
2022-08-21T09:35:58.751Z,99680.38
2022-08-21T09:38:32.742Z,99680.28
2022-08-21T09:41:03.904Z,99676.78
2022-08-21T09:43:33.394Z,99682.34
2022-08-21T09:46:08.986Z,99678.69
2022-08-21T09:48:46.813Z,99670.91
2022-08-21T09:51:17.749Z,99675.16
2022-08-21T09:53:50.670Z,99669.97
2022-08-21T09:56:48.211Z,99680.38
2022-08-21T09:59:20.013Z,99670.13
2022-08-21T10:01:51.804Z,99668.78
2022-08-21T10:04:24.198Z,99669.88
2022-08-21T10:06:53.234Z,99662.91
2022-08-21T10:09:28.197Z,99666.66
2022-08-21T10:12:11.413Z,99664.78
2022-08-21T10:14:53.138Z,99675.78
2022-08-21T10:17:29.754Z,99665.94
2022-08-21T10:20:06.907Z,99675.34
2022-08-21T10:22:44.070Z,99673.06
2022-08-21T10:25:21.913Z,99660.03
2022-08-21T10:27:59.584Z,99659.66
2022-08-21T10:30:41.498Z,99657.00
2022-08-21T10:33:24.947Z,99653.00
2022-08-21T10:36:02.191Z,99652.53
2022-08-21T10:39:17.843Z,99655.59
2022-08-21T10:42:14.819Z,99643.09
2022-08-21T10:44:51.621Z,99647.72
2022-08-21T10:47:28.265Z,99640.88
2022-08-21T10:50:06.651Z,99651.09
2022-08-21T10:52:47.932Z,99648.59
2022-08-21T10:55:19.927Z,99653.38
2022-08-21T10:57:52.891Z,99648.75
2022-08-21T11:00:24.675Z,99640.75
2022-08-21T11:02:58.070Z,99649.28
2022-08-21T11:05:33.050Z,99644.22
2022-08-21T11:08:07.992Z,99649.09
2022-08-21T11:10:51.295Z,99641.47
2022-08-21T11:13:36.621Z,99629.16
2022-08-21T11:16:11.385Z,99641.28
2022-08-21T11:18:42.171Z,99635.47
2022-08-21T11:21:28.254Z,99643.16
2022-08-21T11:24:05.778Z,99637.66
2022-08-21T11:26:40.323Z,99644.41
2022-08-21T11:29:16.142Z,99623.38
2022-08-21T11:31:58.843Z,99625.13
2022-08-21T11:34:49.549Z,99625.25
2022-08-21T11:37:25.275Z,99629.09
2022-08-21T11:40:02.752Z,99630.50
2022-08-21T11:42:40.720Z,99627.50
2022-08-21T11:45:22.172Z,99622.75
2022-08-21T11:48:02.651Z,99631.03
2022-08-21T11:50:36.069Z,99618.16
2022-08-21T11:53:11.591Z,99629.34
2022-08-21T11:55:46.604Z,99624.44
2022-08-21T11:58:23.069Z,99610.31
2022-08-21T12:00:58.079Z,99606.06
2022-08-21T12:03:30.024Z,99601.00
2022-08-21T12:06:01.389Z,99605.53
2022-08-21T12:08:33.608Z,99606.53
2022-08-21T12:11:06.531Z,99604.03
2022-08-21T12:13:40.629Z,99596.31
2022-08-21T12:16:14.631Z,99588.53
2022-08-21T12:18:43.670Z,99585.31
2022-08-21T12:21:26.661Z,99577.19
2022-08-21T12:24:05.868Z,99580.19
2022-08-21T12:26:36.894Z,99584.25
2022-08-21T12:29:15.776Z,99575.91
2022-08-21T12:31:56.036Z,99572.00
2022-08-21T12:34:28.678Z,99568.53
2022-08-21T12:37:01.592Z,99581.34
2022-08-21T12:39:32.912Z,99587.50
2022-08-21T12:42:07.628Z,99588.41
2022-08-21T12:44:42.326Z,99579.78
2022-08-21T12:47:19.074Z,99586.78
2022-08-21T12:49:58.874Z,99583.72
2022-08-21T12:52:36.963Z,99589.91
2022-08-21T12:55:08.868Z,99587.38
2022-08-21T12:57:39.032Z,99584.84
2022-08-21T13:00:12.142Z,99581.72
2022-08-21T13:02:48.670Z,99589.06
2022-08-21T13:05:29.719Z,99583.28
2022-08-21T13:07:58.929Z,99581.78
2022-08-21T13:10:30.143Z,99581.72
2022-08-21T13:13:01.683Z,99582.38
2022-08-21T13:15:47.616Z,99579.13
2022-08-21T13:18:26.103Z,99580.59
2022-08-21T13:21:04.759Z,99576.44
2022-08-21T13:23:33.550Z,99579.38
2022-08-21T13:26:03.856Z,99586.53
2022-08-21T13:28:38.710Z,99583.56
2022-08-21T13:31:11.526Z,99585.66
2022-08-21T13:33:43.344Z,99583.50
2022-08-21T13:36:16.131Z,99581.63
2022-08-21T13:38:46.180Z,99586.41
2022-08-21T13:41:26.881Z,99583.41
2022-08-21T13:44:00.826Z,99582.81
2022-08-21T13:46:31.247Z,99589.28
2022-08-21T13:49:01.991Z,99588.06
2022-08-21T13:51:30.413Z,99576.50
2022-08-21T13:53:58.697Z,99579.91
2022-08-21T13:56:30.965Z,99587.06
2022-08-21T13:59:00.726Z,99578.56
2022-08-21T14:01:31.454Z,99585.50
2022-08-21T14:04:06.554Z,99579.84
2022-08-21T14:06:37.936Z,99576.88
2022-08-21T14:09:11.761Z,99578.91
2022-08-21T14:11:40.838Z,99571.03
2022-08-21T14:14:21.141Z,99565.34
2022-08-21T14:16:57.929Z,99571.28
2022-08-21T14:19:29.910Z,99559.47
2022-08-21T14:21:58.295Z,99562.78
2022-08-21T14:24:35.691Z,99565.72
2022-08-21T14:27:07.918Z,99560.28
2022-08-21T14:29:39.145Z,99565.34
2022-08-21T14:32:21.899Z,99561.00
2022-08-21T14:34:58.081Z,99558.06
2022-08-21T14:37:27.866Z,99554.84
2022-08-21T14:39:56.224Z,99558.88
2022-08-21T14:42:25.028Z,99564.22
2022-08-21T14:44:53.760Z,99564.81
2022-08-21T14:47:23.084Z,99569.00
2022-08-21T14:49:51.446Z,99566.59
2022-08-21T14:52:20.998Z,99568.81
2022-08-21T14:54:49.298Z,99571.88
2022-08-21T14:57:17.662Z,99571.13
2022-08-21T14:59:46.045Z,99571.31
2022-08-21T15:02:14.435Z,99574.31
2022-08-21T15:04:42.854Z,99567.94
2022-08-21T15:07:11.044Z,99560.88
2022-08-21T15:09:40.607Z,99573.53
2022-08-21T15:12:11.007Z,99569.81
2022-08-21T15:14:42.277Z,99574.53
2022-08-21T15:17:11.768Z,99579.72
2022-08-21T15:19:40.610Z,99579.72
2022-08-21T15:22:15.540Z,99583.22
2022-08-21T15:24:52.485Z,99582.13
2022-08-21T15:27:21.501Z,99581.47
2022-08-21T15:29:49.643Z,99585.09
2022-08-21T15:32:22.139Z,99586.03
2022-08-21T15:34:51.568Z,99581.75
2022-08-21T15:37:20.513Z,99579.16
2022-08-21T15:39:53.997Z,99574.91
2022-08-21T15:42:24.998Z,99572.97
2022-08-21T15:44:55.139Z,99564.22
2022-08-21T15:47:27.771Z,99565.16
2022-08-21T15:49:55.979Z,99562.22
2022-08-21T15:52:25.071Z,99566.28
2022-08-21T15:54:53.579Z,99563.91
2022-08-21T15:57:26.385Z,99561.03
2022-08-21T15:59:58.369Z,99561.94
2022-08-21T16:02:28.629Z,99564.34
2022-08-21T16:04:56.823Z,99561.28
2022-08-21T16:07:25.142Z,99561.91
2022-08-21T16:09:53.498Z,99576.66
2022-08-21T16:12:26.890Z,99571.34
2022-08-21T16:14:55.772Z,99564.19
2022-08-21T16:17:27.309Z,99568.22
2022-08-21T16:19:57.130Z,99568.13
2022-08-21T16:22:26.421Z,99560.31
2022-08-21T16:25:09.780Z,99558.50
2022-08-21T16:27:39.778Z,99563.53
2022-08-21T16:30:09.736Z,99566.94
2022-08-21T16:32:38.060Z,99560.22
2022-08-21T16:35:06.908Z,99559.38
2022-08-21T16:37:34.996Z,99567.84
2022-08-21T16:40:03.338Z,99568.97
2022-08-21T16:42:31.579Z,99567.66
2022-08-21T16:45:03.352Z,99572.38
2022-08-21T16:47:31.817Z,99582.81
2022-08-21T16:49:59.962Z,99586.94
2022-08-21T16:52:28.199Z,99576.06
2022-08-21T16:54:56.525Z,99573.00
2022-08-21T16:57:25.757Z,99570.81
2022-08-21T16:59:54.049Z,99569.34
2022-08-21T17:02:31.285Z,99572.00
2022-08-21T17:04:59.574Z,99583.31
2022-08-21T17:07:27.835Z,99579.47
2022-08-21T17:09:56.266Z,99580.44
2022-08-21T17:12:24.850Z,99575.25
2022-08-21T17:14:53.338Z,99580.97
2022-08-21T17:17:21.684Z,99579.16
2022-08-21T17:19:51.267Z,99582.34
2022-08-21T17:22:19.729Z,99574.97
2022-08-21T17:24:48.274Z,99580.00
2022-08-21T17:27:16.520Z,99580.78
2022-08-21T17:29:44.755Z,99575.81
2022-08-21T17:32:20.111Z,99572.56
2022-08-21T17:34:48.319Z,99571.72
2022-08-21T17:37:17.953Z,99570.38
2022-08-21T17:39:47.613Z,99567.00
2022-08-21T17:42:16.062Z,99569.31
2022-08-21T17:44:46.800Z,99571.00
2022-08-21T17:47:15.740Z,99570.25
2022-08-21T17:49:43.883Z,99565.06
2022-08-21T17:52:12.061Z,99564.63
2022-08-21T17:54:42.007Z,99562.03
2022-08-21T17:57:16.451Z,99556.97
2022-08-21T17:59:44.768Z,99560.69
2022-08-21T18:02:20.055Z,99572.34
2022-08-21T18:04:50.565Z,99575.50
2022-08-21T18:07:30.798Z,99579.31
2022-08-21T18:10:02.679Z,99582.75
2022-08-21T18:12:31.918Z,99579.72
2022-08-21T18:15:01.268Z,99579.38
2022-08-21T18:17:33.278Z,99580.00
2022-08-21T18:20:02.129Z,99576.22
2022-08-21T18:22:30.333Z,99573.06
2022-08-21T18:24:58.602Z,99575.09
2022-08-21T18:27:29.815Z,99579.78
2022-08-21T18:30:00.357Z,99575.50
2022-08-21T18:32:32.151Z,99570.88
2022-08-21T18:35:02.601Z,99571.84
2022-08-21T18:37:31.417Z,99576.97
2022-08-21T18:40:00.661Z,99578.25
2022-08-21T18:42:40.120Z,99581.31
2022-08-21T18:45:13.513Z,99584.16
2022-08-21T18:47:45.641Z,99578.72
2022-08-21T18:50:17.579Z,99579.13
2022-08-21T18:52:52.538Z,99580.13
2022-08-21T18:55:22.641Z,99575.63
2022-08-21T18:57:52.359Z,99580.16
2022-08-21T19:00:23.370Z,99572.41
2022-08-21T19:02:52.557Z,99583.06
2022-08-21T19:05:23.159Z,99582.03
2022-08-21T19:07:51.703Z,99579.31
2022-08-21T19:10:27.820Z,99583.59
2022-08-21T19:12:59.917Z,99582.09
2022-08-21T19:15:29.803Z,99591.41
2022-08-21T19:17:58.789Z,99594.97
2022-08-21T19:20:34.541Z,99598.81
2022-08-21T19:23:04.348Z,99600.78
2022-08-21T19:25:34.498Z,99601.50
2022-08-21T19:28:10.902Z,99601.91
2022-08-21T19:30:41.047Z,99596.97
2022-08-21T19:33:11.405Z,99596.19
2022-08-21T19:35:52.473Z,99602.84
2022-08-21T19:38:21.287Z,99597.38
2022-08-21T19:40:49.776Z,99594.66
2022-08-21T19:43:23.193Z,99590.00
2022-08-21T19:45:56.456Z,99585.41
2022-08-21T19:48:25.533Z,99587.72
2022-08-21T19:50:54.713Z,99583.88
2022-08-21T19:53:23.359Z,99585.16
2022-08-21T19:55:51.635Z,99575.34
2022-08-21T19:58:34.357Z,99578.50
2022-08-21T20:01:03.515Z,99579.16
2022-08-21T20:03:39.597Z,99579.53
2022-08-21T20:06:11.985Z,99579.22
2022-08-21T20:08:40.329Z,99574.53
2022-08-21T20:11:08.806Z,99565.31
2022-08-21T20:13:38.687Z,99569.75
2022-08-21T20:16:15.322Z,99562.41
2022-08-21T20:18:44.126Z,99562.91
2022-08-21T20:21:13.396Z,99573.44
2022-08-21T20:23:48.786Z,99575.81
2022-08-21T20:26:17.749Z,99571.09
2022-08-21T20:28:50.470Z,99578.16
2022-08-21T20:31:20.612Z,99573.34
2022-08-21T20:33:51.030Z,99575.75
2022-08-21T20:36:19.633Z,99582.13
2022-08-21T20:38:48.321Z,99577.81
2022-08-21T20:41:30.229Z,99575.47
2022-08-21T20:44:05.470Z,99567.88
2022-08-21T20:46:37.496Z,99574.28
2022-08-21T20:49:09.472Z,99564.97
2022-08-21T20:51:41.620Z,99566.63
2022-08-21T20:54:20.884Z,99567.72
2022-08-21T20:56:54.560Z,99567.16
2022-08-21T20:59:50.650Z,99564.47
2022-08-21T21:02:26.729Z,99565.56
2022-08-21T21:05:02.105Z,99563.72
2022-08-21T21:07:39.833Z,99576.59
2022-08-21T21:10:13.883Z,99580.63
2022-08-21T21:12:56.798Z,99574.47
2022-08-21T21:15:31.149Z,99580.63
2022-08-21T21:18:06.473Z,99581.69
2022-08-21T21:20:40.355Z,99583.34
2022-08-21T21:23:20.846Z,99585.16
2022-08-21T21:25:57.324Z,99598.28
2022-08-21T21:28:33.046Z,99596.78
2022-08-21T21:31:04.925Z,99590.84
2022-08-21T21:33:33.102Z,99590.44
2022-08-21T21:36:13.668Z,99588.94
2022-08-21T21:38:51.803Z,99582.69
2022-08-21T21:41:35.197Z,99584.66
2022-08-21T21:44:16.687Z,99587.41
2022-08-21T21:46:53.967Z,99587.50
2022-08-21T21:49:54.068Z,99584.38
2022-08-21T21:52:42.302Z,99575.91
2022-08-21T21:55:25.250Z,99568.94
2022-08-21T22:01:08.553Z,99573.69
2022-08-21T22:03:50.394Z,99567.59
2022-08-21T22:06:36.302Z,99570.38
2022-08-21T22:09:13.253Z,99562.63
2022-08-21T22:11:55.575Z,99561.06
2022-08-21T22:14:31.485Z,99568.16
2022-08-21T22:17:06.696Z,99566.16
2022-08-21T22:19:43.173Z,99566.94
2022-08-21T22:22:16.941Z,99562.66
2022-08-21T22:24:49.776Z,99560.34
2022-08-21T22:27:22.721Z,99561.06
2022-08-21T22:29:53.505Z,99558.44
2022-08-21T22:32:28.612Z,99563.38
2022-08-21T22:35:09.452Z,99555.50
2022-08-21T22:37:39.689Z,99566.56
2022-08-21T22:40:10.431Z,99558.72
2022-08-21T22:42:39.178Z,99569.91
2022-08-21T22:45:12.170Z,99566.81
2022-08-21T22:47:44.095Z,99567.25
2022-08-21T22:50:22.065Z,99570.88
2022-08-21T22:52:57.071Z,99568.47
2022-08-21T22:55:29.297Z,99567.94
2022-08-21T22:58:04.655Z,99568.75
2022-08-21T23:00:50.667Z,99573.81
2022-08-21T23:03:32.627Z,99566.09
2022-08-21T23:06:12.713Z,99575.13
2022-08-21T23:08:41.397Z,99574.03
2022-08-21T23:11:17.221Z,99571.03
2022-08-21T23:13:48.439Z,99572.19
2022-08-21T23:16:31.475Z,99572.66
2022-08-21T23:19:17.523Z,99576.09
2022-08-21T23:21:57.857Z,99578.84
2022-08-21T23:24:59.761Z,99577.72
2022-08-21T23:27:52.864Z,99580.84
2022-08-21T23:30:31.727Z,99586.84
2022-08-21T23:33:14.713Z,99571.50
2022-08-21T23:36:05.916Z,99588.38
2022-08-21T23:38:49.093Z,99589.97
2022-08-21T23:41:34.239Z,99596.53
2022-08-21T23:44:22.114Z,99587.13
2022-08-21T23:47:10.654Z,99588.47
2022-08-21T23:49:48.834Z,99588.13
2022-08-21T23:52:34.144Z,99595.75
2022-08-21T23:55:24.795Z,99584.88
2022-08-21T23:58:07.519Z,99588.75
